sensor_id;sensor_type;location;lat;lon;timestamp;temperature;humidity
66522;SHT31;53349;53.538;8.584;2023-02-03T00:01:22;7.38;87.73
66522;SHT31;53349;53.538;8.584;2023-02-03T00:03:48;7.38;87.77
66522;SHT31;53349;53.538;8.584;2023-02-03T00:06:13;7.38;87.70
66522;SHT31;53349;53.538;8.584;2023-02-03T00:08:40;7.37;87.66
66522;SHT31;53349;53.538;8.584;2023-02-03T00:11:06;7.38;87.64
66522;SHT31;53349;53.538;8.584;2023-02-03T00:13:33;7.41;87.55
66522;SHT31;53349;53.538;8.584;2023-02-03T00:16:02;7.40;87.49
66522;SHT31;53349;53.538;8.584;2023-02-03T00:18:28;7.41;87.39
66522;SHT31;53349;53.538;8.584;2023-02-03T00:20:53;7.43;87.33
66522;SHT31;53349;53.538;8.584;2023-02-03T00:23:19;7.46;87.27
66522;SHT31;53349;53.538;8.584;2023-02-03T00:25:47;7.41;87.13
66522;SHT31;53349;53.538;8.584;2023-02-03T00:28:12;7.41;87.09
66522;SHT31;53349;53.538;8.584;2023-02-03T00:30:40;7.43;87.04
66522;SHT31;53349;53.538;8.584;2023-02-03T00:33:07;7.46;86.87
66522;SHT31;53349;53.538;8.584;2023-02-03T00:35:32;7.44;86.68
66522;SHT31;53349;53.538;8.584;2023-02-03T00:37:57;7.43;86.53
66522;SHT31;53349;53.538;8.584;2023-02-03T00:40:25;7.43;86.48
66522;SHT31;53349;53.538;8.584;2023-02-03T00:42:51;7.43;86.47
66522;SHT31;53349;53.538;8.584;2023-02-03T00:45:17;7.46;86.31
66522;SHT31;53349;53.538;8.584;2023-02-03T00:47:42;7.46;86.18
66522;SHT31;53349;53.538;8.584;2023-02-03T00:50:09;7.43;85.98
66522;SHT31;53349;53.538;8.584;2023-02-03T00:52:35;7.44;85.96
66522;SHT31;53349;53.538;8.584;2023-02-03T00:55:04;7.46;85.91
66522;SHT31;53349;53.538;8.584;2023-02-03T00:57:30;7.46;85.91
66522;SHT31;53349;53.538;8.584;2023-02-03T00:59:56;7.47;85.71
66522;SHT31;53349;53.538;8.584;2023-02-03T01:02:23;7.46;85.65
66522;SHT31;53349;53.538;8.584;2023-02-03T01:04:49;7.46;85.63
66522;SHT31;53349;53.538;8.584;2023-02-03T01:07:14;7.51;85.41
66522;SHT31;53349;53.538;8.584;2023-02-03T01:09:41;7.51;85.24
66522;SHT31;53349;53.538;8.584;2023-02-03T01:12:06;7.47;85.15
66522;SHT31;53349;53.538;8.584;2023-02-03T01:14:32;7.53;85.13
66522;SHT31;53349;53.538;8.584;2023-02-03T01:16:59;7.53;85.10
66522;SHT31;53349;53.538;8.584;2023-02-03T01:19:24;7.51;85.11
66522;SHT31;53349;53.538;8.584;2023-02-03T01:21:50;7.54;85.10
66522;SHT31;53349;53.538;8.584;2023-02-03T01:24:15;7.53;84.94
66522;SHT31;53349;53.538;8.584;2023-02-03T01:26:41;7.55;84.88
66522;SHT31;53349;53.538;8.584;2023-02-03T01:29:08;7.58;84.82
66522;SHT31;53349;53.538;8.584;2023-02-03T01:31:35;7.61;84.69
66522;SHT31;53349;53.538;8.584;2023-02-03T01:34:04;7.61;84.56
66522;SHT31;53349;53.538;8.584;2023-02-03T01:36:32;7.65;84.46
66522;SHT31;53349;53.538;8.584;2023-02-03T01:38:59;7.65;84.36
66522;SHT31;53349;53.538;8.584;2023-02-03T01:41:31;7.65;84.03
66522;SHT31;53349;53.538;8.584;2023-02-03T01:43:58;7.64;84.07
66522;SHT31;53349;53.538;8.584;2023-02-03T01:46:34;7.65;83.86
66522;SHT31;53349;53.538;8.584;2023-02-03T01:49:19;7.67;83.64
66522;SHT31;53349;53.538;8.584;2023-02-03T01:51:48;7.65;83.60
66522;SHT31;53349;53.538;8.584;2023-02-03T01:54:36;7.70;83.31
66522;SHT31;53349;53.538;8.584;2023-02-03T01:57:09;7.70;83.24
66522;SHT31;53349;53.538;8.584;2023-02-03T01:59:37;7.71;83.10
66522;SHT31;53349;53.538;8.584;2023-02-03T02:02:06;7.70;83.07
66522;SHT31;53349;53.538;8.584;2023-02-03T02:04:38;7.74;83.12
66522;SHT31;53349;53.538;8.584;2023-02-03T02:07:13;7.68;83.04
66522;SHT31;53349;53.538;8.584;2023-02-03T02:09:39;7.70;82.91
66522;SHT31;53349;53.538;8.584;2023-02-03T02:12:05;7.75;83.02
66522;SHT31;53349;53.538;8.584;2023-02-03T02:14:30;7.77;82.77
66522;SHT31;53349;53.538;8.584;2023-02-03T02:17:05;7.78;82.62
66522;SHT31;53349;53.538;8.584;2023-02-03T02:22:19;7.78;82.34
66522;SHT31;53349;53.538;8.584;2023-02-03T02:38:01;7.79;81.94
66522;SHT31;53349;53.538;8.584;2023-02-03T02:43:09;7.82;81.92
66522;SHT31;53349;53.538;8.584;2023-02-03T02:51:07;7.85;81.71
66522;SHT31;53349;53.538;8.584;2023-02-03T02:53:38;7.88;81.76
66522;SHT31;53349;53.538;8.584;2023-02-03T02:56:06;7.88;81.69
66522;SHT31;53349;53.538;8.584;2023-02-03T02:58:35;7.88;81.60
66522;SHT31;53349;53.538;8.584;2023-02-03T03:01:07;7.88;81.71
66522;SHT31;53349;53.538;8.584;2023-02-03T03:03:33;7.85;82.19
66522;SHT31;53349;53.538;8.584;2023-02-03T03:06:07;7.82;82.55
66522;SHT31;53349;53.538;8.584;2023-02-03T03:09:06;7.81;83.04
66522;SHT31;53349;53.538;8.584;2023-02-03T03:11:41;7.77;83.54
66522;SHT31;53349;53.538;8.584;2023-02-03T03:14:09;7.74;83.87
66522;SHT31;53349;53.538;8.584;2023-02-03T03:16:37;7.70;84.21
66522;SHT31;53349;53.538;8.584;2023-02-03T03:19:09;7.70;84.41
66522;SHT31;53349;53.538;8.584;2023-02-03T03:21:56;7.65;84.76
66522;SHT31;53349;53.538;8.584;2023-02-03T03:24:30;7.61;85.08
66522;SHT31;53349;53.538;8.584;2023-02-03T03:27:04;7.60;85.23
66522;SHT31;53349;53.538;8.584;2023-02-03T03:29:43;7.58;85.26
66522;SHT31;53349;53.538;8.584;2023-02-03T03:32:12;7.61;85.23
66522;SHT31;53349;53.538;8.584;2023-02-03T03:34:42;7.60;85.10
66522;SHT31;53349;53.538;8.584;2023-02-03T03:37:30;7.64;85.05
66522;SHT31;53349;53.538;8.584;2023-02-03T03:39:58;7.65;84.91
66522;SHT31;53349;53.538;8.584;2023-02-03T03:42:33;7.65;84.84
66522;SHT31;53349;53.538;8.584;2023-02-03T03:45:17;7.64;84.84
66522;SHT31;53349;53.538;8.584;2023-02-03T03:50:33;7.65;84.70
66522;SHT31;53349;53.538;8.584;2023-02-03T03:53:02;7.67;84.61
66522;SHT31;53349;53.538;8.584;2023-02-03T03:55:31;7.67;84.51
66522;SHT31;53349;53.538;8.584;2023-02-03T03:58:09;7.68;84.37
66522;SHT31;53349;53.538;8.584;2023-02-03T04:00:38;7.70;84.27
66522;SHT31;53349;53.538;8.584;2023-02-03T04:03:12;7.70;84.14
66522;SHT31;53349;53.538;8.584;2023-02-03T04:05:41;7.71;83.96
66522;SHT31;53349;53.538;8.584;2023-02-03T04:08:07;7.70;83.76
66522;SHT31;53349;53.538;8.584;2023-02-03T04:10:42;7.71;83.58
66522;SHT31;53349;53.538;8.584;2023-02-03T04:13:09;7.75;83.50
66522;SHT31;53349;53.538;8.584;2023-02-03T04:15:35;7.77;83.18
66522;SHT31;53349;53.538;8.584;2023-02-03T04:18:03;7.79;82.78
66522;SHT31;53349;53.538;8.584;2023-02-03T04:20:30;7.81;82.52
66522;SHT31;53349;53.538;8.584;2023-02-03T04:22:57;7.81;82.33
66522;SHT31;53349;53.538;8.584;2023-02-03T04:25:23;7.82;82.25
66522;SHT31;53349;53.538;8.584;2023-02-03T04:27:50;7.84;82.09
66522;SHT31;53349;53.538;8.584;2023-02-03T04:30:19;7.84;81.94
66522;SHT31;53349;53.538;8.584;2023-02-03T04:32:45;7.85;81.76
66522;SHT31;53349;53.538;8.584;2023-02-03T04:35:11;7.86;81.66
66522;SHT31;53349;53.538;8.584;2023-02-03T04:37:37;7.88;81.47
66522;SHT31;53349;53.538;8.584;2023-02-03T04:40:03;7.89;81.37
66522;SHT31;53349;53.538;8.584;2023-02-03T04:42:29;7.88;81.36
66522;SHT31;53349;53.538;8.584;2023-02-03T04:44:55;7.94;81.27
66522;SHT31;53349;53.538;8.584;2023-02-03T04:47:20;7.92;81.20
66522;SHT31;53349;53.538;8.584;2023-02-03T04:49:45;7.96;81.18
66522;SHT31;53349;53.538;8.584;2023-02-03T04:52:12;7.95;81.27
66522;SHT31;53349;53.538;8.584;2023-02-03T04:54:38;7.94;81.57
66522;SHT31;53349;53.538;8.584;2023-02-03T04:57:03;7.94;81.96
66522;SHT31;53349;53.538;8.584;2023-02-03T04:59:31;7.94;82.18
66522;SHT31;53349;53.538;8.584;2023-02-03T05:01:57;7.91;82.50
66522;SHT31;53349;53.538;8.584;2023-02-03T05:04:24;7.86;82.71
66522;SHT31;53349;53.538;8.584;2023-02-03T05:06:50;7.86;82.84
66522;SHT31;53349;53.538;8.584;2023-02-03T05:09:16;7.85;82.86
66522;SHT31;53349;53.538;8.584;2023-02-03T05:11:41;7.84;82.86
66522;SHT31;53349;53.538;8.584;2023-02-03T05:14:06;7.79;83.02
66522;SHT31;53349;53.538;8.584;2023-02-03T05:16:33;7.78;83.10
66522;SHT31;53349;53.538;8.584;2023-02-03T05:18:59;7.78;83.14
66522;SHT31;53349;53.538;8.584;2023-02-03T05:21:26;7.78;83.28
66522;SHT31;53349;53.538;8.584;2023-02-03T05:23:51;7.81;83.27
66522;SHT31;53349;53.538;8.584;2023-02-03T05:26:16;7.79;83.29
66522;SHT31;53349;53.538;8.584;2023-02-03T05:28:43;7.84;83.23
66522;SHT31;53349;53.538;8.584;2023-02-03T05:31:09;7.82;83.23
66522;SHT31;53349;53.538;8.584;2023-02-03T05:33:34;7.81;83.13
66522;SHT31;53349;53.538;8.584;2023-02-03T05:36:00;7.85;83.08
66522;SHT31;53349;53.538;8.584;2023-02-03T05:38:25;7.86;82.99
66522;SHT31;53349;53.538;8.584;2023-02-03T05:40:52;7.89;82.85
66522;SHT31;53349;53.538;8.584;2023-02-03T05:43:18;7.92;82.80
66522;SHT31;53349;53.538;8.584;2023-02-03T05:45:44;7.95;82.72
66522;SHT31;53349;53.538;8.584;2023-02-03T05:48:10;7.96;82.62
66522;SHT31;53349;53.538;8.584;2023-02-03T05:50:42;7.98;82.53
66522;SHT31;53349;53.538;8.584;2023-02-03T05:53:07;7.99;82.60
66522;SHT31;53349;53.538;8.584;2023-02-03T05:55:34;8.02;82.52
66522;SHT31;53349;53.538;8.584;2023-02-03T05:58:00;8.03;82.43
66522;SHT31;53349;53.538;8.584;2023-02-03T06:00:26;8.03;82.34
66522;SHT31;53349;53.538;8.584;2023-02-03T06:05:18;8.09;82.09
66522;SHT31;53349;53.538;8.584;2023-02-03T06:07:43;8.10;82.02
66522;SHT31;53349;53.538;8.584;2023-02-03T06:10:10;8.10;82.00
66522;SHT31;53349;53.538;8.584;2023-02-03T06:12:36;8.15;81.89
66522;SHT31;53349;53.538;8.584;2023-02-03T06:15:02;8.17;81.83
66522;SHT31;53349;53.538;8.584;2023-02-03T06:17:27;8.17;81.76
66522;SHT31;53349;53.538;8.584;2023-02-03T06:19:53;8.22;81.72
66522;SHT31;53349;53.538;8.584;2023-02-03T06:22:18;8.22;81.62
66522;SHT31;53349;53.538;8.584;2023-02-03T06:24:45;8.23;81.55
66522;SHT31;53349;53.538;8.584;2023-02-03T06:27:11;8.29;81.41
66522;SHT31;53349;53.538;8.584;2023-02-03T06:29:36;8.32;81.33
66522;SHT31;53349;53.538;8.584;2023-02-03T06:32:02;8.30;81.25
66522;SHT31;53349;53.538;8.584;2023-02-03T06:34:31;8.28;81.31
66522;SHT31;53349;53.538;8.584;2023-02-03T06:36:56;8.30;81.31
66522;SHT31;53349;53.538;8.584;2023-02-03T06:39:21;8.29;81.32
66522;SHT31;53349;53.538;8.584;2023-02-03T06:41:46;8.32;81.28
66522;SHT31;53349;53.538;8.584;2023-02-03T06:44:12;8.32;81.18
66522;SHT31;53349;53.538;8.584;2023-02-03T06:46:37;8.36;81.16
66522;SHT31;53349;53.538;8.584;2023-02-03T06:49:02;8.37;81.32
66522;SHT31;53349;53.538;8.584;2023-02-03T06:51:30;8.39;81.38
66522;SHT31;53349;53.538;8.584;2023-02-03T06:53:56;8.49;81.26
66522;SHT31;53349;53.538;8.584;2023-02-03T06:56:21;8.54;80.99
66522;SHT31;53349;53.538;8.584;2023-02-03T06:58:50;8.59;80.67
66522;SHT31;53349;53.538;8.584;2023-02-03T07:01:16;8.63;80.69
66522;SHT31;53349;53.538;8.584;2023-02-03T07:03:41;8.65;80.57
66522;SHT31;53349;53.538;8.584;2023-02-03T07:06:08;8.65;80.46
66522;SHT31;53349;53.538;8.584;2023-02-03T07:08:37;8.67;80.47
66522;SHT31;53349;53.538;8.584;2023-02-03T07:11:05;8.67;80.35
66522;SHT31;53349;53.538;8.584;2023-02-03T07:13:31;8.67;80.48
66522;SHT31;53349;53.538;8.584;2023-02-03T07:15:57;8.70;80.56
66522;SHT31;53349;53.538;8.584;2023-02-03T07:18:22;8.67;81.08
66522;SHT31;53349;53.538;8.584;2023-02-03T07:20:47;8.65;81.59
66522;SHT31;53349;53.538;8.584;2023-02-03T07:23:13;8.61;82.13
66522;SHT31;53349;53.538;8.584;2023-02-03T07:25:38;8.54;82.82
66522;SHT31;53349;53.538;8.584;2023-02-03T07:28:03;8.49;83.29
66522;SHT31;53349;53.538;8.584;2023-02-03T07:30:29;8.46;83.67
66522;SHT31;53349;53.538;8.584;2023-02-03T07:32:54;8.47;83.83
66522;SHT31;53349;53.538;8.584;2023-02-03T07:35:20;8.43;84.02
66522;SHT31;53349;53.538;8.584;2023-02-03T07:37:46;8.40;84.17
66522;SHT31;53349;53.538;8.584;2023-02-03T07:40:13;8.43;84.20
66522;SHT31;53349;53.538;8.584;2023-02-03T07:42:45;8.42;84.04
66522;SHT31;53349;53.538;8.584;2023-02-03T07:45:13;8.42;83.96
66522;SHT31;53349;53.538;8.584;2023-02-03T07:47:42;8.40;83.95
66522;SHT31;53349;53.538;8.584;2023-02-03T07:50:10;8.42;83.86
66522;SHT31;53349;53.538;8.584;2023-02-03T07:52:36;8.46;83.57
66522;SHT31;53349;53.538;8.584;2023-02-03T07:55:02;8.44;83.42
66522;SHT31;53349;53.538;8.584;2023-02-03T07:57:29;8.46;83.16
66522;SHT31;53349;53.538;8.584;2023-02-03T07:59:54;8.44;83.10
66522;SHT31;53349;53.538;8.584;2023-02-03T08:02:24;8.46;82.95
66522;SHT31;53349;53.538;8.584;2023-02-03T08:04:50;8.49;82.73
66522;SHT31;53349;53.538;8.584;2023-02-03T08:07:16;8.50;82.49
66522;SHT31;53349;53.538;8.584;2023-02-03T08:09:41;8.52;82.34
66522;SHT31;53349;53.538;8.584;2023-02-03T08:12:06;8.52;82.15
66522;SHT31;53349;53.538;8.584;2023-02-03T08:14:32;8.50;82.21
66522;SHT31;53349;53.538;8.584;2023-02-03T08:16:57;8.53;82.40
66522;SHT31;53349;53.538;8.584;2023-02-03T08:19:22;8.50;82.69
66522;SHT31;53349;53.538;8.584;2023-02-03T08:21:48;8.47;83.02
66522;SHT31;53349;53.538;8.584;2023-02-03T08:24:13;8.32;82.88
66522;SHT31;53349;53.538;8.584;2023-02-03T08:26:38;8.16;80.43
66522;SHT31;53349;53.538;8.584;2023-02-03T08:29:04;8.03;78.53
66522;SHT31;53349;53.538;8.584;2023-02-03T08:31:34;7.96;77.31
66522;SHT31;53349;53.538;8.584;2023-02-03T08:34:01;7.95;78.54
66522;SHT31;53349;53.538;8.584;2023-02-03T08:36:26;8.02;80.35
66522;SHT31;53349;53.538;8.584;2023-02-03T08:38:52;8.13;82.80
66522;SHT31;53349;53.538;8.584;2023-02-03T08:41:17;8.17;82.50
66522;SHT31;53349;53.538;8.584;2023-02-03T08:43:43;8.28;82.96
66522;SHT31;53349;53.538;8.584;2023-02-03T08:46:13;8.33;82.33
66522;SHT31;53349;53.538;8.584;2023-02-03T08:48:38;8.33;81.60
66522;SHT31;53349;53.538;8.584;2023-02-03T08:51:12;8.56;82.76
66522;SHT31;53349;53.538;8.584;2023-02-03T08:53:37;8.77;81.88
66522;SHT31;53349;53.538;8.584;2023-02-03T08:56:09;8.89;81.33
66522;SHT31;53349;53.538;8.584;2023-02-03T08:58:35;9.04;81.01
66522;SHT31;53349;53.538;8.584;2023-02-03T09:01:12;9.18;80.53
66522;SHT31;53349;53.538;8.584;2023-02-03T09:03:40;9.14;79.03
66522;SHT31;53349;53.538;8.584;2023-02-03T09:06:07;9.00;78.06
66522;SHT31;53349;53.538;8.584;2023-02-03T09:08:32;8.94;77.86
66522;SHT31;53349;53.538;8.584;2023-02-03T09:10:59;8.92;77.33
66522;SHT31;53349;53.538;8.584;2023-02-03T09:13:25;8.91;77.60
66522;SHT31;53349;53.538;8.584;2023-02-03T09:15:50;8.91;76.26
66522;SHT31;53349;53.538;8.584;2023-02-03T09:18:17;8.97;76.04
66522;SHT31;53349;53.538;8.584;2023-02-03T09:20:42;9.04;75.10
66522;SHT31;53349;53.538;8.584;2023-02-03T09:23:08;9.08;74.43
66522;SHT31;53349;53.538;8.584;2023-02-03T09:25:33;9.15;74.38
66522;SHT31;53349;53.538;8.584;2023-02-03T09:28:01;9.24;74.01
66522;SHT31;53349;53.538;8.584;2023-02-03T09:30:41;9.29;73.92
66522;SHT31;53349;53.538;8.584;2023-02-03T09:33:06;9.35;73.87
66522;SHT31;53349;53.538;8.584;2023-02-03T09:35:33;9.42;73.53
66522;SHT31;53349;53.538;8.584;2023-02-03T09:37:58;9.42;73.71
66522;SHT31;53349;53.538;8.584;2023-02-03T09:40:28;9.46;73.64
66522;SHT31;53349;53.538;8.584;2023-02-03T09:45:52;9.50;73.08
66522;SHT31;53349;53.538;8.584;2023-02-03T09:48:22;9.53;73.03
66522;SHT31;53349;53.538;8.584;2023-02-03T09:50:51;9.56;72.65
66522;SHT31;53349;53.538;8.584;2023-02-03T09:53:28;9.55;73.05
66522;SHT31;53349;53.538;8.584;2023-02-03T09:55:56;9.57;73.01
66522;SHT31;53349;53.538;8.584;2023-02-03T09:58:29;9.55;72.98
66522;SHT31;53349;53.538;8.584;2023-02-03T10:00:59;9.56;73.04
66522;SHT31;53349;53.538;8.584;2023-02-03T10:03:50;9.47;73.34
66522;SHT31;53349;53.538;8.584;2023-02-03T10:06:35;9.42;73.67
66522;SHT31;53349;53.538;8.584;2023-02-03T10:17:46;9.55;74.26
66522;SHT31;53349;53.538;8.584;2023-02-03T10:20:18;9.53;73.82
66522;SHT31;53349;53.538;8.584;2023-02-03T10:23:09;9.52;73.29
66522;SHT31;53349;53.538;8.584;2023-02-03T10:25:47;9.50;73.19
66522;SHT31;53349;53.538;8.584;2023-02-03T10:28:18;9.47;72.63
66522;SHT31;53349;53.538;8.584;2023-02-03T10:30:56;9.45;72.66
66522;SHT31;53349;53.538;8.584;2023-02-03T10:33:25;9.45;73.33
66522;SHT31;53349;53.538;8.584;2023-02-03T10:35:53;9.49;72.57
66522;SHT31;53349;53.538;8.584;2023-02-03T10:41:19;9.43;72.11
66522;SHT31;53349;53.538;8.584;2023-02-03T10:43:48;9.35;72.31
66522;SHT31;53349;53.538;8.584;2023-02-03T10:46:15;9.39;72.38
66522;SHT31;53349;53.538;8.584;2023-02-03T10:48:42;9.38;72.06
66522;SHT31;53349;53.538;8.584;2023-02-03T10:51:18;9.39;71.29
66522;SHT31;53349;53.538;8.584;2023-02-03T10:53:44;9.38;70.93
66522;SHT31;53349;53.538;8.584;2023-02-03T10:56:12;9.34;70.53
66522;SHT31;53349;53.538;8.584;2023-02-03T10:58:58;9.34;70.78
66522;SHT31;53349;53.538;8.584;2023-02-03T11:01:46;9.35;71.23
66522;SHT31;53349;53.538;8.584;2023-02-03T11:04:29;9.31;70.78
66522;SHT31;53349;53.538;8.584;2023-02-03T11:07:01;9.34;71.09
66522;SHT31;53349;53.538;8.584;2023-02-03T11:09:38;9.36;71.50
66522;SHT31;53349;53.538;8.584;2023-02-03T11:12:09;9.46;71.56
66522;SHT31;53349;53.538;8.584;2023-02-03T11:14:42;9.59;71.45
66522;SHT31;53349;53.538;8.584;2023-02-03T11:17:14;9.70;71.06
66522;SHT31;53349;53.538;8.584;2023-02-03T11:19:43;9.79;70.73
66522;SHT31;53349;53.538;8.584;2023-02-03T11:22:09;9.89;70.12
66522;SHT31;53349;53.538;8.584;2023-02-03T11:24:38;10.08;69.30
66522;SHT31;53349;53.538;8.584;2023-02-03T11:27:14;10.27;68.22
66522;SHT31;53349;53.538;8.584;2023-02-03T11:29:43;10.33;67.59
66522;SHT31;53349;53.538;8.584;2023-02-03T11:32:38;10.38;67.25
66522;SHT31;53349;53.538;8.584;2023-02-03T11:35:23;10.51;66.39
66522;SHT31;53349;53.538;8.584;2023-02-03T11:37:53;10.58;66.38
66522;SHT31;53349;53.538;8.584;2023-02-03T11:40:30;10.73;66.04
66522;SHT31;53349;53.538;8.584;2023-02-03T11:43:00;10.80;65.95
66522;SHT31;53349;53.538;8.584;2023-02-03T11:45:43;10.82;66.07
66522;SHT31;53349;53.538;8.584;2023-02-03T11:48:29;10.80;66.14
66522;SHT31;53349;53.538;8.584;2023-02-03T11:51:19;10.79;65.89
66522;SHT31;53349;53.538;8.584;2023-02-03T11:54:24;10.59;66.20
66522;SHT31;53349;53.538;8.584;2023-02-03T11:59:35;10.27;67.01
66522;SHT31;53349;53.538;8.584;2023-02-03T12:10:47;9.94;66.92
66522;SHT31;53349;53.538;8.584;2023-02-03T12:21:50;9.60;68.10
66522;SHT31;53349;53.538;8.584;2023-02-03T12:24:56;9.52;68.49
66522;SHT31;53349;53.538;8.584;2023-02-03T12:27:48;9.47;68.67
66522;SHT31;53349;53.538;8.584;2023-02-03T12:30:24;9.40;68.86
66522;SHT31;53349;53.538;8.584;2023-02-03T12:33:00;9.32;69.59
66522;SHT31;53349;53.538;8.584;2023-02-03T12:35:50;9.29;69.98
66522;SHT31;53349;53.538;8.584;2023-02-03T12:38:25;9.22;69.88
66522;SHT31;53349;53.538;8.584;2023-02-03T12:40:57;9.24;70.22
66522;SHT31;53349;53.538;8.584;2023-02-03T12:43:46;9.21;69.94
66522;SHT31;53349;53.538;8.584;2023-02-03T12:57:51;9.21;68.97
66522;SHT31;53349;53.538;8.584;2023-02-03T13:02:53;9.18;69.20
66522;SHT31;53349;53.538;8.584;2023-02-03T13:08:40;9.07;69.05
66522;SHT31;53349;53.538;8.584;2023-02-03T13:11:33;9.03;69.57
66522;SHT31;53349;53.538;8.584;2023-02-03T13:17:33;9.00;69.64
66522;SHT31;53349;53.538;8.584;2023-02-03T13:20:27;8.97;69.72
66522;SHT31;53349;53.538;8.584;2023-02-03T13:22:54;8.95;69.96
66522;SHT31;53349;53.538;8.584;2023-02-03T13:28:21;8.94;70.10
66522;SHT31;53349;53.538;8.584;2023-02-03T13:31:30;8.88;70.21
66522;SHT31;53349;53.538;8.584;2023-02-03T13:39:35;8.81;70.23
66522;SHT31;53349;53.538;8.584;2023-02-03T13:44:46;8.77;70.24
66522;SHT31;53349;53.538;8.584;2023-02-03T13:47:17;8.80;70.23
66522;SHT31;53349;53.538;8.584;2023-02-03T13:49:54;8.83;70.04
66522;SHT31;53349;53.538;8.584;2023-02-03T13:52:30;8.78;70.17
66522;SHT31;53349;53.538;8.584;2023-02-03T13:55:00;8.78;70.18
66522;SHT31;53349;53.538;8.584;2023-02-03T13:57:37;8.83;70.13
66522;SHT31;53349;53.538;8.584;2023-02-03T14:05:58;8.81;69.91
66522;SHT31;53349;53.538;8.584;2023-02-03T14:16:55;8.81;69.66
66522;SHT31;53349;53.538;8.584;2023-02-03T14:21:55;8.78;69.84
66522;SHT31;53349;53.538;8.584;2023-02-03T14:24:41;8.78;69.91
66522;SHT31;53349;53.538;8.584;2023-02-03T14:27:23;8.75;70.07
66522;SHT31;53349;53.538;8.584;2023-02-03T14:32:50;8.74;70.51
66522;SHT31;53349;53.538;8.584;2023-02-03T14:35:18;8.77;70.67
66522;SHT31;53349;53.538;8.584;2023-02-03T14:37:52;8.74;70.86
66522;SHT31;53349;53.538;8.584;2023-02-03T14:40:40;8.68;70.74
66522;SHT31;53349;53.538;8.584;2023-02-03T14:51:57;8.67;71.23
66522;SHT31;53349;53.538;8.584;2023-02-03T14:57:25;8.54;71.43
66522;SHT31;53349;53.538;8.584;2023-02-03T15:05:50;8.54;71.62
66522;SHT31;53349;53.538;8.584;2023-02-03T15:08:44;8.53;71.64
66522;SHT31;53349;53.538;8.584;2023-02-03T15:11:30;8.53;71.55
66522;SHT31;53349;53.538;8.584;2023-02-03T15:14:23;8.56;71.35
66522;SHT31;53349;53.538;8.584;2023-02-03T15:16:55;8.53;71.28
66522;SHT31;53349;53.538;8.584;2023-02-03T15:19:24;8.56;71.12
66522;SHT31;53349;53.538;8.584;2023-02-03T15:21:50;8.52;71.03
66522;SHT31;53349;53.538;8.584;2023-02-03T15:24:17;8.49;71.45
66522;SHT31;53349;53.538;8.584;2023-02-03T15:26:48;8.43;71.43
66522;SHT31;53349;53.538;8.584;2023-02-03T15:29:49;8.42;71.42
66522;SHT31;53349;53.538;8.584;2023-02-03T15:32:22;8.44;71.39
66522;SHT31;53349;53.538;8.584;2023-02-03T15:34:51;8.43;71.52
66522;SHT31;53349;53.538;8.584;2023-02-03T15:40:08;8.34;71.88
66522;SHT31;53349;53.538;8.584;2023-02-03T15:48:25;8.26;72.43
66522;SHT31;53349;53.538;8.584;2023-02-03T15:51:12;8.23;72.65
66522;SHT31;53349;53.538;8.584;2023-02-03T15:53:46;8.19;73.31
66522;SHT31;53349;53.538;8.584;2023-02-03T15:56:20;8.13;73.44
66522;SHT31;53349;53.538;8.584;2023-02-03T15:58:47;8.07;73.46
66522;SHT31;53349;53.538;8.584;2023-02-03T16:01:14;8.12;73.64
66522;SHT31;53349;53.538;8.584;2023-02-03T16:03:45;8.10;73.66
66522;SHT31;53349;53.538;8.584;2023-02-03T16:06:23;8.05;73.61
66522;SHT31;53349;53.538;8.584;2023-02-03T16:08:50;8.03;73.48
66522;SHT31;53349;53.538;8.584;2023-02-03T16:13:50;7.95;73.96
66522;SHT31;53349;53.538;8.584;2023-02-03T16:16:21;7.96;73.78
66522;SHT31;53349;53.538;8.584;2023-02-03T16:18:51;7.95;73.50
66522;SHT31;53349;53.538;8.584;2023-02-03T16:23:58;7.98;73.23
66522;SHT31;53349;53.538;8.584;2023-02-03T16:26:28;7.99;73.33
66522;SHT31;53349;53.538;8.584;2023-02-03T16:31:44;8.02;73.19
66522;SHT31;53349;53.538;8.584;2023-02-03T16:34:17;8.01;72.93
66522;SHT31;53349;53.538;8.584;2023-02-03T16:36:43;8.01;72.77
66522;SHT31;53349;53.538;8.584;2023-02-03T16:39:10;8.02;72.82
66522;SHT31;53349;53.538;8.584;2023-02-03T16:41:40;8.02;72.86
66522;SHT31;53349;53.538;8.584;2023-02-03T16:44:10;8.02;72.91
66522;SHT31;53349;53.538;8.584;2023-02-03T16:46:36;8.05;72.79
66522;SHT31;53349;53.538;8.584;2023-02-03T16:49:01;7.99;72.59
66522;SHT31;53349;53.538;8.584;2023-02-03T16:51:39;8.03;72.59
66522;SHT31;53349;53.538;8.584;2023-02-03T16:54:08;7.99;72.53
66522;SHT31;53349;53.538;8.584;2023-02-03T16:56:35;7.96;72.51
66522;SHT31;53349;53.538;8.584;2023-02-03T16:59:01;7.96;72.70
66522;SHT31;53349;53.538;8.584;2023-02-03T17:01:26;7.96;72.76
66522;SHT31;53349;53.538;8.584;2023-02-03T17:03:51;7.98;72.66
66522;SHT31;53349;53.538;8.584;2023-02-03T17:06:17;7.96;72.95
66522;SHT31;53349;53.538;8.584;2023-02-03T17:08:43;7.96;73.02
66522;SHT31;53349;53.538;8.584;2023-02-03T17:11:13;7.92;73.29
66522;SHT31;53349;53.538;8.584;2023-02-03T17:13:39;7.91;73.33
66522;SHT31;53349;53.538;8.584;2023-02-03T17:16:14;7.95;73.39
66522;SHT31;53349;53.538;8.584;2023-02-03T17:18:39;7.95;73.36
66522;SHT31;53349;53.538;8.584;2023-02-03T17:21:07;7.95;73.37
66522;SHT31;53349;53.538;8.584;2023-02-03T17:23:33;7.92;73.77
66522;SHT31;53349;53.538;8.584;2023-02-03T17:25:58;7.88;73.80
66522;SHT31;53349;53.538;8.584;2023-02-03T17:28:23;7.88;73.83
66522;SHT31;53349;53.538;8.584;2023-02-03T17:31:03;7.88;73.99
66522;SHT31;53349;53.538;8.584;2023-02-03T17:33:30;7.85;74.16
66522;SHT31;53349;53.538;8.584;2023-02-03T17:36:14;7.84;74.33
66522;SHT31;53349;53.538;8.584;2023-02-03T17:38:56;7.85;74.11
66522;SHT31;53349;53.538;8.584;2023-02-03T17:41:30;7.82;74.23
66522;SHT31;53349;53.538;8.584;2023-02-03T17:43:58;7.84;74.25
66522;SHT31;53349;53.538;8.584;2023-02-03T17:46:24;7.81;74.17
66522;SHT31;53349;53.538;8.584;2023-02-03T17:48:51;7.84;74.00
66522;SHT31;53349;53.538;8.584;2023-02-03T17:51:21;7.79;74.07
66522;SHT31;53349;53.538;8.584;2023-02-03T17:53:47;7.78;74.22
66522;SHT31;53349;53.538;8.584;2023-02-03T17:56:20;7.77;74.06
66522;SHT31;53349;53.538;8.584;2023-02-03T17:58:46;7.77;74.20
66522;SHT31;53349;53.538;8.584;2023-02-03T18:01:17;7.77;74.01
66522;SHT31;53349;53.538;8.584;2023-02-03T18:03:47;7.77;74.07
66522;SHT31;53349;53.538;8.584;2023-02-03T18:06:15;7.78;73.98
66522;SHT31;53349;53.538;8.584;2023-02-03T18:08:41;7.74;74.14
66522;SHT31;53349;53.538;8.584;2023-02-03T18:11:08;7.75;74.30
66522;SHT31;53349;53.538;8.584;2023-02-03T18:13:35;7.81;74.08
66522;SHT31;53349;53.538;8.584;2023-02-03T18:16:05;7.81;74.29
66522;SHT31;53349;53.538;8.584;2023-02-03T18:18:31;7.78;74.79
66522;SHT31;53349;53.538;8.584;2023-02-03T18:20:58;7.78;74.90
66522;SHT31;53349;53.538;8.584;2023-02-03T18:23:23;7.77;75.11
66522;SHT31;53349;53.538;8.584;2023-02-03T18:25:52;7.75;75.22
66522;SHT31;53349;53.538;8.584;2023-02-03T18:28:19;7.74;75.37
66522;SHT31;53349;53.538;8.584;2023-02-03T18:30:44;7.74;75.58
66522;SHT31;53349;53.538;8.584;2023-02-03T18:33:10;7.72;75.46